sensor_id;sensor_type;location;lat;lon;timestamp;temperature;humidity
49901;DHT22;35789;48.414;12.768;2024-03-23T00:55:00;9.5;99.9
49901;DHT22;35789;48.414;12.768;2024-03-23T01:00:00;9.3;99.9
49901;DHT22;35789;48.414;12.768;2024-03-23T01:05:00;9.2;99.9
49901;DHT22;35789;48.414;12.768;2024-03-23T01:10:00;9.0;99.9
49901;DHT22;35789;48.414;12.768;2024-03-23T01:15:00;8.9;99.9
49901;DHT22;35789;48.414;12.768;2024-03-23T01:20:00;8.7;99.9
49901;DHT22;35789;48.414;12.768;2024-03-23T01:25:00;8.6;99.9
49901;DHT22;35789;48.414;12.768;2024-03-23T01:30:00;8.4;99.9
49901;DHT22;35789;48.414;12.768;2024-03-23T01:35:00;8.4;99.9
49901;DHT22;35789;48.414;12.768;2024-03-23T01:40:00;8.3;99.9
49901;DHT22;35789;48.414;12.768;2024-03-23T01:45:00;8.2;99.9
49901;DHT22;35789;48.414;12.768;2024-03-23T01:50:00;8.2;99.9
49901;DHT22;35789;48.414;12.768;2024-03-23T01:55:00;8.1;99.9
49901;DHT22;35789;48.414;12.768;2024-03-23T02:00:00;8.1;99.9
49901;DHT22;35789;48.414;12.768;2024-03-23T02:05:00;8.0;99.9
49901;DHT22;35789;48.414;12.768;2024-03-23T02:10:00;7.9;99.9
49901;DHT22;35789;48.414;12.768;2024-03-23T02:15:00;7.9;99.9
49901;DHT22;35789;48.414;12.768;2024-03-23T02:20:00;7.9;99.9
49901;DHT22;35789;48.414;12.768;2024-03-23T02:25:00;7.7;99.9
49901;DHT22;35789;48.414;12.768;2024-03-23T02:30:00;7.7;99.9
49901;DHT22;35789;48.414;12.768;2024-03-23T02:35:00;7.6;99.9
49901;DHT22;35789;48.414;12.768;2024-03-23T02:40:00;7.5;99.9
49901;DHT22;35789;48.414;12.768;2024-03-23T02:45:00;7.5;99.9
49901;DHT22;35789;48.414;12.768;2024-03-23T02:50:00;7.4;99.9
49901;DHT22;35789;48.414;12.768;2024-03-23T02:55:00;7.3;99.9
49901;DHT22;35789;48.414;12.768;2024-03-23T03:00:00;7.2;99.6
49901;DHT22;35789;48.414;12.768;2024-03-23T03:05:00;7.1;99.9
49901;DHT22;35789;48.414;12.768;2024-03-23T03:10:00;7.2;99.9
49901;DHT22;35789;48.414;12.768;2024-03-23T03:15:00;7.2;99.9
49901;DHT22;35789;48.414;12.768;2024-03-23T03:20:00;7.1;99.9
49901;DHT22;35789;48.414;12.768;2024-03-23T03:25:00;7.0;99.9
49901;DHT22;35789;48.414;12.768;2024-03-23T03:30:00;7.0;99.9
49901;DHT22;35789;48.414;12.768;2024-03-23T03:35:00;7.0;99.9
49901;DHT22;35789;48.414;12.768;2024-03-23T03:40:00;6.9;99.9
49901;DHT22;35789;48.414;12.768;2024-03-23T03:45:00;6.8;99.9
49901;DHT22;35789;48.414;12.768;2024-03-23T03:50:00;6.8;99.9
49901;DHT22;35789;48.414;12.768;2024-03-23T03:55:01;6.8;99.9
49901;DHT22;35789;48.414;12.768;2024-03-23T04:00:00;6.8;99.9
49901;DHT22;35789;48.414;12.768;2024-03-23T04:05:00;6.7;99.9
49901;DHT22;35789;48.414;12.768;2024-03-23T04:10:00;6.6;99.9
49901;DHT22;35789;48.414;12.768;2024-03-23T04:15:00;6.6;99.8
49901;DHT22;35789;48.414;12.768;2024-03-23T04:20:01;6.5;99.9
49901;DHT22;35789;48.414;12.768;2024-03-23T04:25:00;6.4;99.9
49901;DHT22;35789;48.414;12.768;2024-03-23T04:30:00;6.4;99.9
49901;DHT22;35789;48.414;12.768;2024-03-23T04:35:00;6.4;99.9
49901;DHT22;35789;48.414;12.768;2024-03-23T04:40:00;6.3;99.9
49901;DHT22;35789;48.414;12.768;2024-03-23T04:45:00;6.3;99.8
49901;DHT22;35789;48.414;12.768;2024-03-23T04:50:00;6.3;99.9
49901;DHT22;35789;48.414;12.768;2024-03-23T04:55:00;6.3;99.9
49901;DHT22;35789;48.414;12.768;2024-03-23T05:00:00;6.2;99.9
49901;DHT22;35789;48.414;12.768;2024-03-23T05:05:00;6.1;99.9
49901;DHT22;35789;48.414;12.768;2024-03-23T05:10:00;6.1;99.9
49901;DHT22;35789;48.414;12.768;2024-03-23T05:15:00;6.0;99.8
49901;DHT22;35789;48.414;12.768;2024-03-23T05:20:00;6.0;99.9
49901;DHT22;35789;48.414;12.768;2024-03-23T05:25:00;6.0;99.9
49901;DHT22;35789;48.414;12.768;2024-03-23T05:30:00;6.1;99.9
49901;DHT22;35789;48.414;12.768;2024-03-23T05:35:00;6.0;99.9
49901;DHT22;35789;48.414;12.768;2024-03-23T05:40:00;6.0;99.9
49901;DHT22;35789;48.414;12.768;2024-03-23T05:45:00;6.0;99.9
49901;DHT22;35789;48.414;12.768;2024-03-23T05:50:00;6.0;99.9
49901;DHT22;35789;48.414;12.768;2024-03-23T05:55:00;6.0;99.9
49901;DHT22;35789;48.414;12.768;2024-03-23T06:00:00;6.1;99.9
49901;DHT22;35789;48.414;12.768;2024-03-23T06:05:00;6.1;99.9
49901;DHT22;35789;48.414;12.768;2024-03-23T06:10:00;6.2;99.9
49901;DHT22;35789;48.414;12.768;2024-03-23T06:15:00;6.2;99.9
49901;DHT22;35789;48.414;12.768;2024-03-23T06:20:00;6.3;99.9
49901;DHT22;35789;48.414;12.768;2024-03-23T06:25:00;6.3;99.9
49901;DHT22;35789;48.414;12.768;2024-03-23T06:30:00;6.4;99.9
49901;DHT22;35789;48.414;12.768;2024-03-23T06:35:00;6.5;99.9
49901;DHT22;35789;48.414;12.768;2024-03-23T06:40:00;6.7;99.9
49901;DHT22;35789;48.414;12.768;2024-03-23T06:45:00;6.9;99.9
49901;DHT22;35789;48.414;12.768;2024-03-23T06:50:00;7.0;99.9
49901;DHT22;35789;48.414;12.768;2024-03-23T06:55:00;7.0;99.9
49901;DHT22;35789;48.414;12.768;2024-03-23T07:00:00;7.1;99.9
49901;DHT22;35789;48.414;12.768;2024-03-23T07:05:00;7.1;99.9
49901;DHT22;35789;48.414;12.768;2024-03-23T07:10:00;7.2;99.9
49901;DHT22;35789;48.414;12.768;2024-03-23T07:15:00;7.3;99.9
49901;DHT22;35789;48.414;12.768;2024-03-23T07:20:00;7.5;99.9
49901;DHT22;35789;48.414;12.768;2024-03-23T07:25:00;7.8;99.9
49901;DHT22;35789;48.414;12.768;2024-03-23T07:30:00;8.2;99.9
49901;DHT22;35789;48.414;12.768;2024-03-23T07:35:00;8.8;99.6
49901;DHT22;35789;48.414;12.768;2024-03-23T07:40:00;9.1;99.5
49901;DHT22;35789;48.414;12.768;2024-03-23T07:45:00;9.4;98.7
49901;DHT22;35789;48.414;12.768;2024-03-23T07:50:00;9.6;98.4
49901;DHT22;35789;48.414;12.768;2024-03-23T07:55:00;9.7;98.3
49901;DHT22;35789;48.414;12.768;2024-03-23T08:00:00;9.9;97.5
49901;DHT22;35789;48.414;12.768;2024-03-23T08:05:00;10.2;96.1
49901;DHT22;35789;48.414;12.768;2024-03-23T08:10:00;10.5;96.3
49901;DHT22;35789;48.414;12.768;2024-03-23T08:15:00;11.0;95.0
49901;DHT22;35789;48.414;12.768;2024-03-23T08:20:00;11.9;94.0
49901;DHT22;35789;48.414;12.768;2024-03-23T08:25:00;12.2;93.0
49901;DHT22;35789;48.414;12.768;2024-03-23T08:30:00;12.1;93.1
49901;DHT22;35789;48.414;12.768;2024-03-23T08:35:00;11.9;93.0
49901;DHT22;35789;48.414;12.768;2024-03-23T08:40:00;11.7;93.9
49901;DHT22;35789;48.414;12.768;2024-03-23T08:45:00;11.5;95.5
49901;DHT22;35789;48.414;12.768;2024-03-23T08:50:00;11.5;96.2
49901;DHT22;35789;48.414;12.768;2024-03-23T08:55:00;11.2;98.0
49901;DHT22;35789;48.414;12.768;2024-03-23T09:00:00;10.9;99.9
49901;DHT22;35789;48.414;12.768;2024-03-23T09:05:00;10.6;99.9
49901;DHT22;35789;48.414;12.768;2024-03-23T09:10:00;10.1;99.9
49901;DHT22;35789;48.414;12.768;2024-03-23T09:15:00;9.7;99.9
49901;DHT22;35789;48.414;12.768;2024-03-23T09:20:00;9.3;99.9
49901;DHT22;35789;48.414;12.768;2024-03-23T09:25:00;9.2;99.9
49901;DHT22;35789;48.414;12.768;2024-03-23T09:30:00;9.0;99.9
49901;DHT22;35789;48.414;12.768;2024-03-23T09:35:00;8.8;99.9
49901;DHT22;35789;48.414;12.768;2024-03-23T09:40:00;8.8;99.9
49901;DHT22;35789;48.414;12.768;2024-03-23T09:45:00;8.7;99.9
49901;DHT22;35789;48.414;12.768;2024-03-23T09:50:00;8.6;99.9
49901;DHT22;35789;48.414;12.768;2024-03-23T09:55:00;8.6;99.9
49901;DHT22;35789;48.414;12.768;2024-03-23T10:00:00;8.5;99.9
49901;DHT22;35789;48.414;12.768;2024-03-23T10:05:00;8.5;99.9
49901;DHT22;35789;48.414;12.768;2024-03-23T10:10:02;8.5;99.9
49901;DHT22;35789;48.414;12.768;2024-03-23T10:15:00;8.4;99.9
49901;DHT22;35789;48.414;12.768;2024-03-23T10:20:00;8.5;99.9
49901;DHT22;35789;48.414;12.768;2024-03-23T10:25:06;8.5;99.9
49901;DHT22;35789;48.414;12.768;2024-03-23T10:30:07;8.5;99.9
49901;DHT22;35789;48.414;12.768;2024-03-23T10:40:00;8.5;99.9
49901;DHT22;35789;48.414;12.768;2024-03-23T10:45:00;8.6;99.9
49901;DHT22;35789;48.414;12.768;2024-03-23T10:50:00;8.6;99.9
49901;DHT22;35789;48.414;12.768;2024-03-23T10:55:00;8.6;99.9
49901;DHT22;35789;48.414;12.768;2024-03-23T11:00:01;8.7;99.9
49901;DHT22;35789;48.414;12.768;2024-03-23T11:05:00;8.9;99.9
49901;DHT22;35789;48.414;12.768;2024-03-23T11:10:00;9.0;99.9
49901;DHT22;35789;48.414;12.768;2024-03-23T11:15:01;9.2;99.9
49901;DHT22;35789;48.414;12.768;2024-03-23T11:20:00;9.3;99.9
49901;DHT22;35789;48.414;12.768;2024-03-23T11:25:00;9.2;99.9
49901;DHT22;35789;48.414;12.768;2024-03-23T11:30:09;9.1;99.9
49901;DHT22;35789;48.414;12.768;2024-03-23T11:35:00;9.1;99.9
49901;DHT22;35789;48.414;12.768;2024-03-23T11:40:00;9.0;99.9
49901;DHT22;35789;48.414;12.768;2024-03-23T11:45:06;9.0;99.9
49901;DHT22;35789;48.414;12.768;2024-03-23T11:50:00;9.0;99.9
49901;DHT22;35789;48.414;12.768;2024-03-23T11:55:04;9.1;99.9
49901;DHT22;35789;48.414;12.768;2024-03-23T12:00:00;9.2;99.9
49901;DHT22;35789;48.414;12.768;2024-03-23T12:10:03;9.4;99.9
49901;DHT22;35789;48.414;12.768;2024-03-23T12:15:02;9.4;99.9
49901;DHT22;35789;48.414;12.768;2024-03-23T12:20:00;9.4;99.9
49901;DHT22;35789;48.414;12.768;2024-03-23T12:25:00;9.4;98.9
49901;DHT22;35789;48.414;12.768;2024-03-23T12:30:00;9.3;98.6
49901;DHT22;35789;48.414;12.768;2024-03-23T12:35:00;9.3;98.1
49901;DHT22;35789;48.414;12.768;2024-03-23T12:40:00;9.3;98.2
49901;DHT22;35789;48.414;12.768;2024-03-23T12:45:00;9.4;97.3
49901;DHT22;35789;48.414;12.768;2024-03-23T12:50:00;9.4;97.4
49901;DHT22;35789;48.414;12.768;2024-03-23T12:55:00;9.3;97.0
49901;DHT22;35789;48.414;12.768;2024-03-23T13:00:00;9.4;97.7
49901;DHT22;35789;48.414;12.768;2024-03-23T13:05:00;9.3;97.5
49901;DHT22;35789;48.414;12.768;2024-03-23T13:10:00;9.3;95.9
49901;DHT22;35789;48.414;12.768;2024-03-23T13:15:00;9.2;96.2
49901;DHT22;35789;48.414;12.768;2024-03-23T13:20:00;9.2;95.6
49901;DHT22;35789;48.414;12.768;2024-03-23T13:25:00;9.3;96.5
49901;DHT22;35789;48.414;12.768;2024-03-23T13:30:00;9.4;94.6
49901;DHT22;35789;48.414;12.768;2024-03-23T13:35:00;9.4;95.9
49901;DHT22;35789;48.414;12.768;2024-03-23T13:40:00;9.2;96.7
49901;DHT22;35789;48.414;12.768;2024-03-23T13:45:00;9.1;96.0
49901;DHT22;35789;48.414;12.768;2024-03-23T13:50:00;9.0;95.2
49901;DHT22;35789;48.414;12.768;2024-03-23T13:55:00;9.0;95.9
49901;DHT22;35789;48.414;12.768;2024-03-23T14:00:00;9.0;96.7
49901;DHT22;35789;48.414;12.768;2024-03-23T14:05:01;9.2;96.7
49901;DHT22;35789;48.414;12.768;2024-03-23T14:10:02;9.2;96.4
49901;DHT22;35789;48.414;12.768;2024-03-23T14:15:00;9.3;96.0
49901;DHT22;35789;48.414;12.768;2024-03-23T14:20:00;9.3;95.7
49901;DHT22;35789;48.414;12.768;2024-03-23T14:25:00;9.3;95.2
49901;DHT22;35789;48.414;12.768;2024-03-23T14:30:00;9.2;95.5
49901;DHT22;35789;48.414;12.768;2024-03-23T14:35:00;9.0;95.3
49901;DHT22;35789;48.414;12.768;2024-03-23T14:40:00;8.9;95.4
49901;DHT22;35789;48.414;12.768;2024-03-23T14:45:00;8.9;94.3
49901;DHT22;35789;48.414;12.768;2024-03-23T14:50:00;8.8;95.1
49901;DHT22;35789;48.414;12.768;2024-03-23T14:55:00;8.7;96.7
49901;DHT22;35789;48.414;12.768;2024-03-23T15:00:00;8.3;96.1
49901;DHT22;35789;48.414;12.768;2024-03-23T15:05:00;6.5;98.0
49901;DHT22;35789;48.414;12.768;2024-03-23T15:10:00;5.8;99.9
49901;DHT22;35789;48.414;12.768;2024-03-23T15:15:00;5.7;99.9
49901;DHT22;35789;48.414;12.768;2024-03-23T15:20:00;5.9;99.9
49901;DHT22;35789;48.414;12.768;2024-03-23T15:25:00;6.1;99.9
49901;DHT22;35789;48.414;12.768;2024-03-23T15:30:00;6.1;99.9
49901;DHT22;35789;48.414;12.768;2024-03-23T15:35:00;6.2;99.9
49901;DHT22;35789;48.414;12.768;2024-03-23T15:40:00;6.3;99.9
49901;DHT22;35789;48.414;12.768;2024-03-23T15:45:00;6.3;99.9
49901;DHT22;35789;48.414;12.768;2024-03-23T15:50:00;6.4;99.9
49901;DHT22;35789;48.414;12.768;2024-03-23T15:55:00;6.4;99.9
49901;DHT22;35789;48.414;12.768;2024-03-23T16:00:00;6.4;99.9
49901;DHT22;35789;48.414;12.768;2024-03-23T16:05:00;6.4;99.9
49901;DHT22;35789;48.414;12.768;2024-03-23T16:10:00;6.4;99.9
49901;DHT22;35789;48.414;12.768;2024-03-23T16:15:00;6.4;99.9
49901;DHT22;35789;48.414;12.768;2024-03-23T16:20:00;6.4;99.9
49901;DHT22;35789;48.414;12.768;2024-03-23T16:25:00;6.4;99.9
49901;DHT22;35789;48.414;12.768;2024-03-23T16:30:00;6.4;99.9
49901;DHT22;35789;48.414;12.768;2024-03-23T16:35:00;6.4;99.9
49901;DHT22;35789;48.414;12.768;2024-03-23T16:40:00;6.4;99.9
49901;DHT22;35789;48.414;12.768;2024-03-23T16:45:00;6.3;99.9
49901;DHT22;35789;48.414;12.768;2024-03-23T16:50:00;6.3;99.9
49901;DHT22;35789;48.414;12.768;2024-03-23T16:55:00;6.2;99.9
49901;DHT22;35789;48.414;12.768;2024-03-23T17:00:00;6.2;99.9
49901;DHT22;35789;48.414;12.768;2024-03-23T17:05:00;6.1;99.9
49901;DHT22;35789;48.414;12.768;2024-03-23T17:10:00;6.1;99.9
49901;DHT22;35789;48.414;12.768;2024-03-23T17:15:03;6.1;99.9
49901;DHT22;35789;48.414;12.768;2024-03-23T17:20:00;6.0;99.9
49901;DHT22;35789;48.414;12.768;2024-03-23T17:25:00;6.0;99.9
49901;DHT22;35789;48.414;12.768;2024-03-23T17:30:00;6.0;99.9
49901;DHT22;35789;48.414;12.768;2024-03-23T17:35:00;5.9;99.9
49901;DHT22;35789;48.414;12.768;2024-03-23T17:40:00;5.9;99.9
49901;DHT22;35789;48.414;12.768;2024-03-23T17:45:00;5.8;99.9
49901;DHT22;35789;48.414;12.768;2024-03-23T17:50:00;5.8;99.9
49901;DHT22;35789;48.414;12.768;2024-03-23T17:55:00;5.8;99.9
49901;DHT22;35789;48.414;12.768;2024-03-23T18:00:00;5.8;99.9
49901;DHT22;35789;48.414;12.768;2024-03-23T18:05:00;5.8;99.9
49901;DHT22;35789;48.414;12.768;2024-03-23T18:10:00;5.8;99.9
49901;DHT22;35789;48.414;12.768;2024-03-23T18:15:00;5.8;99.9
49901;DHT22;35789;48.414;12.768;2024-03-23T18:25:05;4.8;99.9
49901;DHT22;35789;48.414;12.768;2024-03-23T18:30:00;4.7;99.9
49901;DHT22;35789;48.414;12.768;2024-03-23T18:40:00;4.5;99.9
49901;DHT22;35789;48.414;12.768;2024-03-23T18:45:00;4.4;99.9
49901;DHT22;35789;48.414;12.768;2024-03-23T18:50:00;4.4;99.9
49901;DHT22;35789;48.414;12.768;2024-03-23T18:55:00;4.3;99.9
49901;DHT22;35789;48.414;12.768;2024-03-23T19:00:00;4.3;99.9
49901;DHT22;35789;48.414;12.768;2024-03-23T19:05:00;4.2;99.9
49901;DHT22;35789;48.414;12.768;2024-03-23T19:10:00;4.2;99.9
49901;DHT22;35789;48.414;12.768;2024-03-23T19:15:00;4.3;99.9
49901;DHT22;35789;48.414;12.768;2024-03-23T19:20:00;4.2;99.9
49901;DHT22;35789;48.414;12.768;2024-03-23T19:25:00;4.1;99.9
49901;DHT22;35789;48.414;12.768;2024-03-23T19:30:00;4.1;99.9
49901;DHT22;35789;48.414;12.768;2024-03-23T19:35:00;4.1;99.9
49901;DHT22;35789;48.414;12.768;2024-03-23T19:40:00;4.1;99.9
49901;DHT22;35789;48.414;12.768;2024-03-23T19:45:00;4.1;99.9
49901;DHT22;35789;48.414;12.768;2024-03-23T19:50:00;4.0;99.9
49901;DHT22;35789;48.414;12.768;2024-03-23T19:55:00;4.1;99.9
49901;DHT22;35789;48.414;12.768;2024-03-23T20:00:00;4.0;99.9
49901;DHT22;35789;48.414;12.768;2024-03-23T20:05:00;4.0;99.9
49901;DHT22;35789;48.414;12.768;2024-03-23T20:10:00;4.0;99.9
49901;DHT22;35789;48.414;12.768;2024-03-23T20:15:00;4.0;99.9
49901;DHT22;35789;48.414;12.768;2024-03-23T20:20:00;4.1;99.9
49901;DHT22;35789;48.414;12.768;2024-03-23T20:25:00;4.1;99.9
49901;DHT22;35789;48.414;12.768;2024-03-23T20:30:00;4.1;99.9
49901;DHT22;35789;48.414;12.768;2024-03-23T20:35:00;4.1;99.9
49901;DHT22;35789;48.414;12.768;2024-03-23T20:40:00;4.1;99.9
49901;DHT22;35789;48.414;12.768;2024-03-23T20:45:00;4.1;99.9
49901;DHT22;35789;48.414;12.768;2024-03-23T20:50:00;4.1;99.9
49901;DHT22;35789;48.414;12.768;2024-03-23T20:55:00;4.1;99.9
49901;DHT22;35789;48.414;12.768;2024-03-23T21:00:00;4.1;99.9
49901;DHT22;35789;48.414;12.768;2024-03-23T21:05:00;4.1;99.9
49901;DHT22;35789;48.414;12.768;2024-03-23T21:10:00;4.0;99.9
49901;DHT22;35789;48.414;12.768;2024-03-23T21:15:00;3.9;99.9
49901;DHT22;35789;48.414;12.768;2024-03-23T21:20:00;3.9;99.9
49901;DHT22;35789;48.414;12.768;2024-03-23T21:25:00;3.9;99.9
49901;DHT22;35789;48.414;12.768;2024-03-23T21:30:00;4.0;99.9
49901;DHT22;35789;48.414;12.768;2024-03-23T21:35:00;3.9;99.9
49901;DHT22;35789;48.414;12.768;2024-03-23T21:40:00;3.8;99.9
49901;DHT22;35789;48.414;12.768;2024-03-23T21:45:00;3.8;99.9
49901;DHT22;35789;48.414;12.768;2024-03-23T21:50:00;3.8;99.9
49901;DHT22;35789;48.414;12.768;2024-03-23T21:55:00;3.8;99.9
49901;DHT22;35789;48.414;12.768;2024-03-23T22:00:00;3.9;99.9
49901;DHT22;35789;48.414;12.768;2024-03-23T22:05:00;3.9;99.9
49901;DHT22;35789;48.414;12.768;2024-03-23T22:10:00;3.9;99.9
49901;DHT22;35789;48.414;12.768;2024-03-23T22:15:00;4.0;99.9
49901;DHT22;35789;48.414;12.768;2024-03-23T22:20:00;4.0;99.9
49901;DHT22;35789;48.414;12.768;2024-03-23T22:25:00;4.0;99.9
49901;DHT22;35789;48.414;12.768;2024-03-23T22:30:00;4.0;99.9
49901;DHT22;35789;48.414;12.768;2024-03-23T22:35:00;4.0;99.9
49901;DHT22;35789;48.414;12.768;2024-03-23T22:40:00;4.0;99.9
49901;DHT22;35789;48.414;12.768;2024-03-23T22:45:00;4.0;99.9
49901;DHT22;35789;48.414;12.768;2024-03-23T22:50:00;4.1;99.9
49901;DHT22;35789;48.414;12.768;2024-03-23T22:55:00;4.2;99.9
49901;DHT22;35789;48.414;12.768;2024-03-23T23:00:00;4.1;99.9
49901;DHT22;35789;48.414;12.768;2024-03-23T23:05:00;4.0;99.9
49901;DHT22;35789;48.414;12.768;2024-03-23T23:10:00;3.9;99.9
49901;DHT22;35789;48.414;12.768;2024-03-23T23:15:00;3.9;99.9
49901;DHT22;35789;48.414;12.768;2024-03-23T23:20:00;4.0;99.9
49901;DHT22;35789;48.414;12.768;2024-03-23T23:25:00;4.0;99.9
49901;DHT22;35789;48.414;12.768;2024-03-23T23:30:00;4.0;99.9
49901;DHT22;35789;48.414;12.768;2024-03-23T23:35:00;4.0;99.9
49901;DHT22;35789;48.414;12.768;2024-03-23T23:40:00;4.0;99.9
49901;DHT22;35789;48.414;12.768;2024-03-23T23:45:00;3.9;99.9
49901;DHT22;35789;48.414;12.768;2024-03-23T23:50:00;3.9;99.9
49901;DHT22;35789;48.414;12.768;2024-03-23T23:55:00;3.9;99.9
